Archiv

Tageswerte

Alle gespeicherten Messwerte deiner Wetterstation.

Ausgewählter Tag11.01.2024
← Vortag Nächster Tag → Heute
Messpunkte288
Max Temperatur-1,6 °C
Min Temperatur-9,9 °C
Ø Temperatur-5,6 °C
Regen0,0 mm
Stärkste Böe19,3 km/h

Messwerte vom 11.01.2024

288 gespeicherte Messwerte

Diagramm anzeigen
ZeitTemperaturFeuchteDruckWindBöeRichtungRegenUVHelligkeit
23:59-3,6 °C91 %1.021,0 hPa1,6 km/h3,2 km/h293°0,0 mm
23:54-3,7 °C91 %1.021,0 hPa1,4 km/h2,7 km/h301°0,0 mm
23:49-3,7 °C91 %1.021,0 hPa1,3 km/h2,7 km/h286°0,0 mm
23:44-3,7 °C91 %1.021,0 hPa0,7 km/h2,7 km/h292°0,0 mm
23:39-3,7 °C91 %1.021,0 hPa1,2 km/h5,6 km/h273°0,0 mm
23:34-3,7 °C91 %1.021,0 hPa1,5 km/h3,2 km/h298°0,0 mm
23:29-3,7 °C91 %1.021,0 hPa1,8 km/h5,6 km/h295°0,0 mm
23:24-3,8 °C91 %1.021,0 hPa1,5 km/h3,2 km/h287°0,0 mm
23:19-3,8 °C91 %1.021,0 hPa1,2 km/h2,7 km/h296°0,0 mm
23:14-3,8 °C91 %1.021,0 hPa1,1 km/h2,7 km/h292°0,0 mm
23:09-3,8 °C90 %1.021,0 hPa0,6 km/h2,7 km/h304°0,0 mm
23:04-3,9 °C90 %1.021,0 hPa1,4 km/h3,2 km/h291°0,0 mm
22:59-3,9 °C90 %1.021,0 hPa1,6 km/h5,3 km/h274°0,0 mm
22:54-3,9 °C90 %1.021,0 hPa1,4 km/h3,5 km/h293°0,0 mm
22:49-3,9 °C90 %1.021,0 hPa1,9 km/h5,3 km/h301°0,0 mm
22:44-4,0 °C90 %1.021,0 hPa1,7 km/h5,0 km/h263°0,0 mm
22:39-4,0 °C89 %1.021,0 hPa2,2 km/h5,6 km/h291°0,0 mm
22:34-4,0 °C89 %1.021,0 hPa2,2 km/h4,2 km/h276°0,0 mm
22:29-4,0 °C89 %1.021,0 hPa1,9 km/h3,2 km/h265°0,0 mm
22:24-4,0 °C89 %1.021,0 hPa2,8 km/h5,6 km/h272°0,0 mm
22:19-4,0 °C89 %1.021,0 hPa2,3 km/h7,1 km/h289°0,0 mm
22:14-4,1 °C88 %1.020,0 hPa2,1 km/h5,6 km/h265°0,0 mm
22:09-4,1 °C88 %1.020,0 hPa1,3 km/h5,3 km/h244°0,0 mm
22:04-4,2 °C88 %1.020,0 hPa0,7 km/h2,7 km/h263°0,0 mm
21:59-4,2 °C88 %1.020,0 hPa2,1 km/h8,5 km/h251°0,0 mm
21:54-4,2 °C88 %1.020,0 hPa3,1 km/h8,5 km/h248°0,0 mm
21:49-4,2 °C88 %1.020,0 hPa2,8 km/h5,3 km/h214°0,0 mm
21:44-4,2 °C88 %1.021,0 hPa2,3 km/h8,5 km/h246°0,0 mm
21:39-4,2 °C88 %1.021,0 hPa2,0 km/h8,5 km/h270°0,0 mm
21:34-4,2 °C88 %1.021,0 hPa0,6 km/h2,4 km/h262°0,0 mm
21:29-4,3 °C88 %1.021,0 hPa1,3 km/h2,7 km/h246°0,0 mm
21:24-4,3 °C88 %1.021,0 hPa1,7 km/h5,3 km/h244°0,0 mm
21:19-4,3 °C87 %1.021,0 hPa2,3 km/h4,7 km/h254°0,0 mm
21:14-4,3 °C87 %1.021,0 hPa3,1 km/h6,8 km/h275°0,0 mm
21:09-4,3 °C87 %1.021,0 hPa2,3 km/h4,7 km/h249°0,0 mm
21:04-4,3 °C87 %1.021,0 hPa2,9 km/h6,8 km/h252°0,0 mm
20:59-4,3 °C87 %1.021,0 hPa1,9 km/h5,3 km/h259°0,0 mm
20:54-4,3 °C87 %1.021,0 hPa2,1 km/h6,4 km/h272°0,0 mm
20:49-4,3 °C86 %1.021,0 hPa1,6 km/h6,8 km/h265°0,0 mm
20:44-4,3 °C86 %1.021,0 hPa1,4 km/h2,7 km/h304°0,0 mm
20:39-4,3 °C86 %1.021,0 hPa1,6 km/h3,9 km/h273°0,0 mm
20:34-4,3 °C86 %1.021,0 hPa1,3 km/h3,5 km/h279°0,0 mm
20:29-4,3 °C86 %1.021,0 hPa2,0 km/h3,5 km/h256°0,0 mm
20:24-4,3 °C86 %1.021,0 hPa0,9 km/h2,7 km/h294°0,0 mm
20:19-4,3 °C86 %1.021,0 hPa1,9 km/h3,9 km/h280°0,0 mm
20:14-4,3 °C85 %1.021,0 hPa1,2 km/h3,2 km/h288°0,0 mm
20:09-4,3 °C85 %1.021,0 hPa1,7 km/h3,9 km/h290°0,0 mm
20:04-4,4 °C85 %1.021,0 hPa0,6 km/h3,9 km/h326°0,0 mm
19:59-4,4 °C85 %1.021,0 hPa1,5 km/h3,2 km/h312°0,0 mm
19:54-4,4 °C85 %1.021,0 hPa1,3 km/h5,3 km/h275°0,0 mm
19:49-4,4 °C84 %1.021,0 hPa2,7 km/h6,4 km/h290°0,0 mm
19:44-4,4 °C84 %1.021,0 hPa1,1 km/h6,4 km/h324°0,0 mm
19:39-4,4 °C84 %1.021,0 hPa1,4 km/h4,2 km/h325°0,0 mm
19:34-4,5 °C83 %1.021,0 hPa1,2 km/h6,4 km/h286°0,0 mm
19:29-4,5 °C83 %1.021,0 hPa0,6 km/h2,4 km/h282°0,0 mm
19:24-4,5 °C83 %1.021,0 hPa1,8 km/h5,6 km/h268°0,0 mm
19:19-4,5 °C83 %1.021,0 hPa1,1 km/h3,5 km/h285°0,0 mm
19:14-4,5 °C82 %1.020,0 hPa1,6 km/h3,9 km/h296°0,0 mm
19:09-4,5 °C81 %1.020,0 hPa1,6 km/h6,4 km/h312°0,0 mm
19:04-4,5 °C80 %1.020,0 hPa1,1 km/h3,5 km/h298°0,0 mm
18:59-4,5 °C79 %1.020,0 hPa2,6 km/h7,9 km/h321°0,0 mm
18:54-4,5 °C79 %1.020,0 hPa2,9 km/h7,4 km/h321°0,0 mm
18:49-4,4 °C79 %1.020,0 hPa2,5 km/h7,4 km/h321°0,0 mm
18:44-4,4 °C78 %1.020,0 hPa5,5 km/h10,3 km/h328°0,0 mm
18:39-4,4 °C78 %1.020,0 hPa4,4 km/h8,5 km/h326°0,0 mm
18:34-4,3 °C77 %1.020,0 hPa3,9 km/h8,5 km/h322°0,0 mm
18:29-4,3 °C77 %1.020,0 hPa1,7 km/h4,2 km/h318°0,0 mm
18:24-4,2 °C76 %1.020,0 hPa2,2 km/h8,5 km/h317°0,0 mm
18:19-4,2 °C75 %1.020,0 hPa3,3 km/h8,5 km/h329°0,0 mm
18:14-4,3 °C75 %1.020,0 hPa2,2 km/h5,3 km/h327°0,0 mm
18:09-4,3 °C75 %1.020,0 hPa3,2 km/h8,5 km/h315°0,0 mm
18:04-4,3 °C75 %1.020,0 hPa2,2 km/h5,6 km/h322°0,0 mm
17:59-4,3 °C75 %1.020,0 hPa1,2 km/h3,2 km/h302°0,0 mm
17:54-4,2 °C75 %1.020,0 hPa1,9 km/h3,5 km/h310°0,0 mm
17:49-4,2 °C74 %1.020,0 hPa2,9 km/h7,9 km/h322°0,0 mm
17:44-4,2 °C74 %1.019,0 hPa2,6 km/h8,2 km/h324°0,0 mm
17:39-4,1 °C74 %1.019,0 hPa4,4 km/h10,3 km/h292°0,0 mm
17:34-4,1 °C74 %1.019,0 hPa2,4 km/h4,2 km/h299°0,0 mm
17:29-4,0 °C74 %1.019,0 hPa2,4 km/h6,8 km/h271°0,0 mm
17:24-4,0 °C74 %1.019,0 hPa4,7 km/h11,7 km/h317°0,0 mm
17:19-4,0 °C73 %1.019,0 hPa1,9 km/h4,2 km/h278°0,0 mm
17:14-3,9 °C73 %1.019,0 hPa1,5 km/h3,5 km/h291°0,0 mm
17:09-3,9 °C73 %1.019,0 hPa1,7 km/h5,0 km/h303°0,0 mm
17:04-3,9 °C72 %1.019,0 hPa1,1 km/h4,7 km/h324°0,0 mm
16:59-3,9 °C72 %1.019,0 hPa2,7 km/h7,1 km/h294°0,0 mm
16:54-3,8 °C73 %1.019,0 hPa0,3 km/h2,4 km/h261°0,0 mm
16:49-3,7 °C72 %1.019,0 hPa0,2 km/h3,2 km/h315°0,0 mm
16:44-3,5 °C72 %1.019,0 hPa0,5 km/h2,7 km/h304°0,0 mm
16:39-3,5 °C71 %1.019,0 hPa2,4 km/h5,0 km/h288°0,0 mm
16:34-3,4 °C70 %1.019,0 hPa2,1 km/h7,4 km/h281°0,0 mm
16:29-3,4 °C70 %1.019,0 hPa1,8 km/h6,4 km/h282°0,0 mm
16:24-3,3 °C70 %1.019,0 hPa2,2 km/h3,5 km/h305°0,0 mm
16:19-3,2 °C69 %1.019,0 hPa2,7 km/h7,9 km/h282°0,0 mm
16:14-3,1 °C68 %1.019,0 hPa3,1 km/h8,5 km/h291°0,0 mm
16:09-3,1 °C68 %1.019,0 hPa3,9 km/h8,5 km/h320°0,0 mm
16:04-3,0 °C67 %1.019,0 hPa1,8 km/h6,8 km/h309°0,0 mm
15:59-3,0 °C66 %1.019,0 hPa1,9 km/h6,8 km/h300°0,0 mm
15:54-2,9 °C65 %1.019,0 hPa1,6 km/h4,2 km/h307°0,0 mm
15:49-2,8 °C64 %1.019,0 hPa3,6 km/h13,2 km/h305°0,0 mm
15:44-2,7 °C63 %1.019,0 hPa3,3 km/h17,2 km/h290°0,0 mm
15:39-2,7 °C62 %1.019,0 hPa5,1 km/h13,2 km/h285°0,0 mm
15:34-2,6 °C61 %1.019,0 hPa2,3 km/h7,9 km/h293°0,0 mm
15:29-2,5 °C60 %1.019,0 hPa3,9 km/h7,9 km/h278°0,0 mm
15:24-2,5 °C60 %1.019,0 hPa2,5 km/h6,8 km/h300°0,0 mm
15:19-2,4 °C59 %1.019,0 hPa2,9 km/h7,4 km/h279°0,0 mm
15:14-2,3 °C58 %1.019,0 hPa2,9 km/h8,5 km/h255°0,0 mm
15:09-2,3 °C57 %1.019,0 hPa3,9 km/h8,5 km/h255°0,0 mm
15:04-2,2 °C58 %1.019,0 hPa3,1 km/h6,8 km/h249°0,0 mm
14:59-2,1 °C57 %1.019,0 hPa2,1 km/h6,4 km/h296°0,0 mm
14:54-2,1 °C57 %1.019,0 hPa3,6 km/h8,5 km/h305°0,0 mm
14:49-2,1 °C58 %1.019,0 hPa2,6 km/h5,6 km/h266°0,0 mm
14:44-2,0 °C59 %1.019,0 hPa2,4 km/h6,8 km/h287°0,0 mm
14:39-2,0 °C61 %1.019,0 hPa2,2 km/h6,4 km/h293°0,0 mm
14:34-1,9 °C60 %1.019,0 hPa3,3 km/h7,9 km/h279°0,0 mm
14:29-1,9 °C59 %1.019,0 hPa3,3 km/h9,7 km/h305°0,0 mm
14:24-1,9 °C59 %1.019,0 hPa2,5 km/h5,6 km/h308°0,0 mm
14:19-1,8 °C59 %1.019,0 hPa5,0 km/h19,3 km/h306°0,0 mm
14:14-1,7 °C59 %1.019,0 hPa4,1 km/h10,3 km/h273°0,0 mm
14:09-1,7 °C59 %1.019,0 hPa2,2 km/h5,6 km/h272°0,0 mm
14:04-1,6 °C59 %1.019,0 hPa4,5 km/h10,8 km/h308°0,0 mm
13:59-1,6 °C59 %1.019,0 hPa4,5 km/h8,5 km/h290°0,0 mm
13:54-1,7 °C59 %1.019,0 hPa2,0 km/h6,8 km/h288°0,0 mm
13:49-1,8 °C59 %1.019,0 hPa2,4 km/h7,9 km/h268°0,0 mm
13:44-1,8 °C59 %1.019,0 hPa3,9 km/h7,4 km/h290°0,0 mm
13:39-1,7 °C61 %1.019,0 hPa5,1 km/h10,8 km/h273°0,0 mm
13:34-1,8 °C63 %1.019,0 hPa2,3 km/h6,8 km/h276°0,0 mm
13:29-1,8 °C65 %1.019,0 hPa3,5 km/h7,9 km/h258°0,0 mm
13:24-1,8 °C66 %1.019,0 hPa2,0 km/h4,2 km/h298°0,0 mm
13:19-1,8 °C65 %1.019,0 hPa4,2 km/h9,3 km/h310°0,0 mm
13:14-1,7 °C63 %1.019,0 hPa3,6 km/h8,5 km/h270°0,0 mm
13:09-1,7 °C64 %1.019,0 hPa3,8 km/h9,3 km/h284°0,0 mm
13:04-1,9 °C63 %1.019,0 hPa3,3 km/h9,7 km/h201°0,0 mm
12:59-2,0 °C64 %1.019,0 hPa2,7 km/h7,4 km/h294°0,0 mm
12:54-2,3 °C66 %1.019,0 hPa2,9 km/h8,5 km/h198°0,0 mm
12:49-2,5 °C68 %1.019,0 hPa4,5 km/h8,5 km/h227°0,0 mm
12:44-2,7 °C69 %1.020,0 hPa3,3 km/h9,3 km/h241°0,0 mm
12:39-2,9 °C69 %1.020,0 hPa3,2 km/h5,6 km/h270°0,0 mm
12:34-3,2 °C71 %1.020,0 hPa2,9 km/h8,5 km/h258°0,0 mm
12:29-3,4 °C73 %1.020,0 hPa2,3 km/h6,8 km/h305°0,0 mm
12:24-3,5 °C74 %1.020,0 hPa3,6 km/h8,5 km/h237°0,0 mm
12:19-3,6 °C74 %1.020,0 hPa3,7 km/h9,7 km/h212°0,0 mm
12:14-3,8 °C75 %1.020,0 hPa4,5 km/h8,5 km/h231°0,0 mm
12:09-4,0 °C76 %1.020,0 hPa3,6 km/h8,9 km/h230°0,0 mm
12:04-4,1 °C76 %1.020,0 hPa5,1 km/h8,9 km/h226°0,0 mm
11:59-4,1 °C76 %1.020,0 hPa5,8 km/h11,4 km/h244°0,0 mm
11:54-4,2 °C77 %1.020,0 hPa4,2 km/h11,1 km/h240°0,0 mm
11:49-4,2 °C77 %1.020,0 hPa5,5 km/h10,8 km/h245°0,0 mm
11:44-4,1 °C77 %1.020,0 hPa4,7 km/h9,3 km/h228°0,0 mm
11:39-4,0 °C77 %1.020,0 hPa4,8 km/h10,8 km/h236°0,0 mm
11:34-3,9 °C76 %1.020,0 hPa3,0 km/h9,7 km/h240°0,0 mm
11:29-3,8 °C76 %1.021,0 hPa2,8 km/h6,4 km/h241°0,0 mm
11:24-3,9 °C76 %1.021,0 hPa2,2 km/h5,0 km/h274°0,0 mm
11:19-4,0 °C76 %1.021,0 hPa2,0 km/h3,9 km/h299°0,0 mm
11:14-4,2 °C76 %1.021,0 hPa3,2 km/h8,5 km/h283°0,0 mm
11:09-4,4 °C76 %1.021,0 hPa3,5 km/h7,9 km/h287°0,0 mm
11:04-4,6 °C77 %1.021,0 hPa2,4 km/h3,9 km/h277°0,0 mm
10:59-4,8 °C78 %1.021,0 hPa3,1 km/h8,9 km/h273°0,0 mm
10:54-5,0 °C78 %1.021,0 hPa2,9 km/h7,9 km/h265°0,0 mm
10:49-5,2 °C79 %1.021,0 hPa2,9 km/h5,3 km/h300°0,0 mm
10:44-5,4 °C80 %1.020,0 hPa2,3 km/h7,4 km/h308°0,0 mm
10:39-5,6 °C80 %1.020,0 hPa2,8 km/h7,9 km/h274°0,0 mm
10:34-5,7 °C81 %1.020,0 hPa3,6 km/h8,5 km/h298°0,0 mm
10:29-5,7 °C81 %1.020,0 hPa2,9 km/h5,3 km/h253°0,0 mm
10:24-5,8 °C82 %1.020,0 hPa1,7 km/h3,9 km/h242°0,0 mm
10:19-5,8 °C81 %1.020,0 hPa2,4 km/h8,5 km/h194°0,0 mm
10:14-5,8 °C81 %1.020,0 hPa2,5 km/h7,9 km/h263°0,0 mm
10:09-5,9 °C81 %1.020,0 hPa3,1 km/h6,8 km/h299°0,0 mm
10:04-6,0 °C81 %1.020,0 hPa2,6 km/h7,9 km/h282°0,0 mm
09:59-6,3 °C82 %1.021,0 hPa1,2 km/h7,4 km/h263°0,0 mm
09:54-6,5 °C82 %1.021,0 hPa2,2 km/h6,8 km/h274°0,0 mm
09:49-6,7 °C83 %1.021,0 hPa0,4 km/h2,7 km/h268°0,0 mm
09:44-6,9 °C84 %1.020,0 hPa1,6 km/h3,9 km/h276°0,0 mm
09:39-7,0 °C84 %1.020,0 hPa1,9 km/h4,2 km/h261°0,0 mm
09:34-7,1 °C84 %1.020,0 hPa2,3 km/h5,0 km/h279°0,0 mm
09:29-7,2 °C85 %1.020,0 hPa1,5 km/h3,5 km/h270°0,0 mm
09:24-7,3 °C85 %1.020,0 hPa1,8 km/h5,6 km/h270°0,0 mm
09:19-7,3 °C85 %1.020,0 hPa1,1 km/h2,7 km/h303°0,0 mm
09:14-7,3 °C85 %1.020,0 hPa0,8 km/h2,7 km/h291°0,0 mm
09:09-7,4 °C85 %1.020,0 hPa0,7 km/h3,2 km/h322°0,0 mm
09:04-7,4 °C85 %1.020,0 hPa1,2 km/h5,6 km/h260°0,0 mm
08:59-7,4 °C85 %1.020,0 hPa1,9 km/h3,9 km/h247°0,0 mm
08:54-7,5 °C85 %1.020,0 hPa2,9 km/h7,4 km/h218°0,0 mm
08:49-7,6 °C85 %1.020,0 hPa2,0 km/h2,7 km/h246°0,0 mm
08:44-7,7 °C85 %1.020,0 hPa0,3 km/h2,7 km/h258°0,0 mm
08:39-7,8 °C86 %1.020,0 hPa1,1 km/h5,6 km/h245°0,0 mm
08:34-7,9 °C86 %1.020,0 hPa5,8 km/h17,5 km/h241°0,0 mm
08:29-8,0 °C86 %1.020,0 hPa3,9 km/h8,9 km/h236°0,0 mm
08:24-8,1 °C86 %1.020,0 hPa2,3 km/h8,5 km/h245°0,0 mm
08:19-8,3 °C86 %1.020,0 hPa3,0 km/h7,4 km/h218°0,0 mm
08:14-8,4 °C86 %1.020,0 hPa3,2 km/h7,9 km/h254°0,0 mm
08:09-8,6 °C87 %1.020,0 hPa4,1 km/h8,9 km/h235°0,0 mm
08:04-8,7 °C87 %1.020,0 hPa3,7 km/h6,8 km/h217°0,0 mm
07:59-8,7 °C87 %1.021,0 hPa2,2 km/h6,4 km/h260°0,0 mm
07:54-8,6 °C87 %1.021,0 hPa0,2 km/h2,7 km/h292°0,0 mm
07:49-8,5 °C86 %1.021,0 hPa0,0 km/h0,0 km/h315°0,0 mm
07:44-8,4 °C86 %1.021,0 hPa0,0 km/h0,0 km/h315°0,0 mm
07:39-8,3 °C86 %1.021,0 hPa0,0 km/h0,0 km/h315°0,0 mm
07:34-8,2 °C86 %1.021,0 hPa0,1 km/h1,8 km/h292°0,0 mm
07:29-8,1 °C85 %1.021,0 hPa0,0 km/h0,0 km/h292°0,0 mm
07:24-8,1 °C85 %1.021,0 hPa1,9 km/h5,6 km/h251°0,0 mm
07:19-8,1 °C85 %1.021,0 hPa1,8 km/h3,5 km/h240°0,0 mm
07:14-8,0 °C85 %1.021,0 hPa2,2 km/h6,1 km/h257°0,0 mm
07:09-8,0 °C85 %1.021,0 hPa1,3 km/h3,9 km/h259°0,0 mm
07:04-8,0 °C85 %1.021,0 hPa2,0 km/h5,6 km/h255°0,0 mm
06:59-8,0 °C85 %1.020,0 hPa2,4 km/h6,8 km/h240°0,0 mm
06:54-8,0 °C85 %1.020,0 hPa2,5 km/h4,7 km/h257°0,0 mm
06:49-8,0 °C85 %1.020,0 hPa1,4 km/h3,5 km/h260°0,0 mm
06:44-8,0 °C85 %1.020,0 hPa1,4 km/h5,3 km/h257°0,0 mm
06:39-8,1 °C85 %1.020,0 hPa2,7 km/h7,4 km/h249°0,0 mm
06:34-8,3 °C85 %1.020,0 hPa2,1 km/h4,2 km/h262°0,0 mm
06:29-8,5 °C86 %1.020,0 hPa2,9 km/h5,6 km/h233°0,0 mm
06:24-8,6 °C86 %1.020,0 hPa2,3 km/h5,3 km/h268°0,0 mm
06:19-8,8 °C87 %1.020,0 hPa1,0 km/h2,7 km/h292°0,0 mm
06:14-9,0 °C87 %1.021,0 hPa0,3 km/h2,4 km/h292°0,0 mm
06:09-9,0 °C87 %1.021,0 hPa0,5 km/h2,7 km/h298°0,0 mm
06:04-9,0 °C87 %1.021,0 hPa0,0 km/h0,0 km/h315°0,0 mm
05:59-9,0 °C87 %1.021,0 hPa0,0 km/h0,0 km/h315°0,0 mm
05:54-9,0 °C87 %1.021,0 hPa0,3 km/h2,4 km/h315°0,0 mm
05:49-9,0 °C87 %1.021,0 hPa0,1 km/h1,8 km/h315°0,0 mm
05:44-9,0 °C87 %1.020,0 hPa0,6 km/h3,5 km/h315°0,0 mm
05:39-8,8 °C86 %1.020,0 hPa0,1 km/h1,8 km/h315°0,0 mm
05:34-8,6 °C86 %1.020,0 hPa0,0 km/h0,0 km/h315°0,0 mm
05:29-8,5 °C85 %1.020,0 hPa0,0 km/h0,0 km/h315°0,0 mm
05:24-8,5 °C85 %1.020,0 hPa0,6 km/h8,5 km/h253°0,0 mm
05:19-8,5 °C85 %1.020,0 hPa3,1 km/h6,8 km/h263°0,0 mm
05:14-8,7 °C85 %1.020,0 hPa3,3 km/h5,6 km/h267°0,0 mm
05:09-8,7 °C86 %1.020,0 hPa4,8 km/h9,3 km/h241°0,0 mm
05:04-8,8 °C86 %1.020,0 hPa4,1 km/h8,5 km/h244°0,0 mm
04:59-8,9 °C86 %1.020,0 hPa3,7 km/h7,4 km/h230°0,0 mm
04:54-9,0 °C87 %1.020,0 hPa2,0 km/h5,0 km/h226°0,0 mm
04:49-9,4 °C87 %1.020,0 hPa2,0 km/h5,3 km/h248°0,0 mm
04:44-9,6 °C88 %1.021,0 hPa2,2 km/h5,6 km/h231°0,0 mm
04:39-9,7 °C88 %1.021,0 hPa0,8 km/h2,4 km/h202°0,0 mm
04:34-9,6 °C87 %1.021,0 hPa0,0 km/h0,0 km/h202°0,0 mm
04:29-9,5 °C87 %1.021,0 hPa0,0 km/h0,0 km/h202°0,0 mm
04:24-9,5 °C87 %1.021,0 hPa0,1 km/h1,8 km/h202°0,0 mm
04:19-9,4 °C87 %1.021,0 hPa0,0 km/h0,0 km/h202°0,0 mm
04:14-9,5 °C87 %1.021,0 hPa0,0 km/h0,0 km/h202°0,0 mm
04:09-9,8 °C88 %1.021,0 hPa0,0 km/h0,0 km/h202°0,0 mm
04:04-9,9 °C88 %1.021,0 hPa0,0 km/h0,0 km/h202°0,0 mm
03:59-9,7 °C87 %1.021,0 hPa0,0 km/h0,0 km/h202°0,0 mm
03:54-9,5 °C87 %1.021,0 hPa0,0 km/h0,0 km/h202°0,0 mm
03:49-9,5 °C87 %1.021,0 hPa0,0 km/h0,0 km/h202°0,0 mm
03:44-9,7 °C88 %1.021,0 hPa0,0 km/h0,0 km/h202°0,0 mm
03:39-9,6 °C87 %1.021,0 hPa0,0 km/h0,0 km/h202°0,0 mm
03:34-9,4 °C86 %1.021,0 hPa0,0 km/h0,0 km/h202°0,0 mm
03:29-9,2 °C86 %1.020,0 hPa0,0 km/h0,0 km/h202°0,0 mm
03:24-9,0 °C85 %1.020,0 hPa0,0 km/h0,0 km/h202°0,0 mm
03:19-8,8 °C85 %1.020,0 hPa0,0 km/h0,0 km/h202°0,0 mm
03:14-8,5 °C83 %1.020,0 hPa0,0 km/h0,0 km/h202°0,0 mm
03:09-8,4 °C83 %1.020,0 hPa0,0 km/h0,0 km/h202°0,0 mm
03:04-8,5 °C83 %1.020,0 hPa0,0 km/h0,0 km/h202°0,0 mm
02:59-8,5 °C84 %1.020,0 hPa0,4 km/h2,4 km/h202°0,0 mm
02:54-8,2 °C83 %1.020,0 hPa0,0 km/h0,0 km/h202°0,0 mm
02:49-8,0 °C82 %1.020,0 hPa0,0 km/h0,0 km/h202°0,0 mm
02:44-8,0 °C81 %1.020,0 hPa0,0 km/h0,0 km/h202°0,0 mm
02:39-8,0 °C82 %1.020,0 hPa0,0 km/h0,0 km/h202°0,0 mm
02:34-8,0 °C82 %1.020,0 hPa0,0 km/h0,0 km/h202°0,0 mm
02:29-8,1 °C83 %1.020,0 hPa0,0 km/h0,0 km/h202°0,0 mm
02:24-8,2 °C82 %1.020,0 hPa0,0 km/h0,0 km/h202°0,0 mm
02:19-8,1 °C83 %1.020,0 hPa0,0 km/h0,0 km/h202°0,0 mm
02:14-7,8 °C82 %1.020,0 hPa0,0 km/h0,0 km/h202°0,0 mm
02:09-7,7 °C81 %1.020,0 hPa0,0 km/h0,0 km/h202°0,0 mm
02:04-7,8 °C81 %1.020,0 hPa0,0 km/h0,0 km/h202°0,0 mm
01:59-7,8 °C81 %1.021,0 hPa0,1 km/h1,8 km/h202°0,0 mm
01:54-7,8 °C81 %1.021,0 hPa0,4 km/h3,5 km/h202°0,0 mm
01:49-7,9 °C81 %1.021,0 hPa0,1 km/h1,8 km/h202°0,0 mm
01:44-7,8 °C81 %1.021,0 hPa0,0 km/h0,0 km/h202°0,0 mm
01:39-7,6 °C80 %1.021,0 hPa0,0 km/h0,0 km/h202°0,0 mm
01:34-7,7 °C80 %1.021,0 hPa0,0 km/h0,0 km/h202°0,0 mm
01:29-7,8 °C81 %1.021,0 hPa0,0 km/h0,0 km/h202°0,0 mm
01:24-7,7 °C81 %1.021,0 hPa0,0 km/h0,0 km/h202°0,0 mm
01:19-7,8 °C81 %1.021,0 hPa0,0 km/h0,0 km/h202°0,0 mm
01:14-8,0 °C82 %1.021,0 hPa0,4 km/h2,4 km/h202°0,0 mm
01:09-8,0 °C81 %1.021,0 hPa0,0 km/h0,0 km/h202°0,0 mm
01:04-8,0 °C82 %1.021,0 hPa1,2 km/h5,3 km/h202°0,0 mm
00:59-7,7 °C82 %1.021,0 hPa0,0 km/h0,0 km/h202°0,0 mm
00:54-7,5 °C81 %1.021,0 hPa0,0 km/h0,0 km/h202°0,0 mm
00:49-7,3 °C80 %1.021,0 hPa0,0 km/h0,0 km/h202°0,0 mm
00:44-7,1 °C80 %1.021,0 hPa0,0 km/h0,0 km/h202°0,0 mm
00:39-7,0 °C79 %1.021,0 hPa0,0 km/h0,0 km/h202°0,0 mm
00:34-7,1 °C79 %1.021,0 hPa0,1 km/h1,8 km/h202°0,0 mm
00:29-7,3 °C79 %1.021,0 hPa0,1 km/h1,8 km/h202°0,0 mm
00:24-7,6 °C81 %1.021,0 hPa0,4 km/h2,1 km/h202°0,0 mm
00:19-7,8 °C81 %1.021,0 hPa0,0 km/h0,0 km/h202°0,0 mm
00:14-7,8 °C82 %1.021,0 hPa0,0 km/h0,0 km/h202°0,0 mm
00:09-7,6 °C82 %1.021,0 hPa0,0 km/h0,0 km/h202°0,0 mm
00:04-7,6 °C81 %1.021,0 hPa0,0 km/h0,0 km/h202°0,0 mm